< < Back
Terminal Aerodrome Forecast


Current Version              Previous Versions:   1  2  3  4  5  6  7  8  9  

Terminal Aerodrome Forecast

719
FTUS42 KFFC 131125
TAFMCN
TAF
KMCN 131125Z 1312/1412 32010KT P6SM SKC
     FM140000 34004KT P6SM SKC
     FM141000 05004KT P6SM SCT080=

Latest METAR

265
SAUS80 KWBC 140800 RRB
MTRMCN
METAR KMCN 140753Z AUTO 29004KT 10SM CLR M02/M07 A3036 RMK AO2 SLP283
T10221072 TSNO


USA.gov is the U.S. government's official web portal to all federal, state and local government web resources and services.